sensor_id;sensor_type;location;lat;lon;timestamp;P1;durP1;ratioP1;P2;durP2;ratioP2
69256;SDS011;56376;53.356;-1.748;2023-05-28T00:00:44;2.05;;;1.85;;
69256;SDS011;56376;53.356;-1.748;2023-05-28T00:03:10;2.15;;;1.70;;
69256;SDS011;56376;53.356;-1.748;2023-05-28T00:05:36;2.55;;;1.58;;
69256;SDS011;56376;53.356;-1.748;2023-05-28T00:08:03;3.33;;;1.85;;
69256;SDS011;56376;53.356;-1.748;2023-05-28T00:10:28;1.90;;;1.70;;
69256;SDS011;56376;53.356;-1.748;2023-05-28T00:12:53;1.85;;;1.60;;
69256;SDS011;56376;53.356;-1.748;2023-05-28T00:15:19;2.58;;;1.70;;
69256;SDS011;56376;53.356;-1.748;2023-05-28T00:17:45;1.77;;;1.60;;
69256;SDS011;56376;53.356;-1.748;2023-05-28T00:20:11;1.77;;;1.55;;
69256;SDS011;56376;53.356;-1.748;2023-05-28T00:22:36;2.15;;;1.90;;
69256;SDS011;56376;53.356;-1.748;2023-05-28T00:25:03;2.72;;;2.00;;
69256;SDS011;56376;53.356;-1.748;2023-05-28T00:27:28;1.85;;;1.50;;
69256;SDS011;56376;53.356;-1.748;2023-05-28T00:29:54;1.92;;;1.63;;
69256;SDS011;56376;53.356;-1.748;2023-05-28T00:32:19;1.70;;;1.60;;
69256;SDS011;56376;53.356;-1.748;2023-05-28T00:34:45;2.42;;;1.65;;
69256;SDS011;56376;53.356;-1.748;2023-05-28T00:37:10;2.28;;;1.75;;
69256;SDS011;56376;53.356;-1.748;2023-05-28T00:39:35;2.90;;;2.05;;
69256;SDS011;56376;53.356;-1.748;2023-05-28T00:42:01;1.80;;;1.67;;
69256;SDS011;56376;53.356;-1.748;2023-05-28T00:44:28;1.85;;;1.75;;
69256;SDS011;56376;53.356;-1.748;2023-05-28T00:46:53;2.08;;;1.70;;
69256;SDS011;56376;53.356;-1.748;2023-05-28T00:49:20;2.20;;;2.00;;
69256;SDS011;56376;53.356;-1.748;2023-05-28T00:51:47;2.90;;;1.88;;
69256;SDS011;56376;53.356;-1.748;2023-05-28T00:54:13;2.10;;;1.70;;
69256;SDS011;56376;53.356;-1.748;2023-05-28T00:56:39;1.67;;;1.58;;
69256;SDS011;56376;53.356;-1.748;2023-05-28T00:59:05;1.63;;;1.50;;
69256;SDS011;56376;53.356;-1.748;2023-05-28T01:01:31;2.60;;;2.03;;
69256;SDS011;56376;53.356;-1.748;2023-05-28T01:03:57;1.95;;;1.60;;
69256;SDS011;56376;53.356;-1.748;2023-05-28T01:06:23;2.67;;;1.73;;
69256;SDS011;56376;53.356;-1.748;2023-05-28T01:08:49;2.22;;;1.65;;
69256;SDS011;56376;53.356;-1.748;2023-05-28T01:11:17;1.88;;;1.70;;
69256;SDS011;56376;53.356;-1.748;2023-05-28T01:13:44;2.45;;;1.95;;
69256;SDS011;56376;53.356;-1.748;2023-05-28T01:16:11;2.22;;;1.70;;
69256;SDS011;56376;53.356;-1.748;2023-05-28T01:18:36;2.00;;;1.80;;
69256;SDS011;56376;53.356;-1.748;2023-05-28T01:21:04;1.75;;;1.63;;
69256;SDS011;56376;53.356;-1.748;2023-05-28T01:23:37;1.90;;;1.60;;
69256;SDS011;56376;53.356;-1.748;2023-05-28T01:26:05;1.67;;;1.58;;
69256;SDS011;56376;53.356;-1.748;2023-05-28T01:28:32;1.90;;;1.80;;
69256;SDS011;56376;53.356;-1.748;2023-05-28T01:30:57;3.13;;;2.00;;
69256;SDS011;56376;53.356;-1.748;2023-05-28T01:33:23;1.70;;;1.58;;
69256;SDS011;56376;53.356;-1.748;2023-05-28T01:35:49;1.50;;;1.40;;
69256;SDS011;56376;53.356;-1.748;2023-05-28T01:38:17;2.55;;;1.60;;
69256;SDS011;56376;53.356;-1.748;2023-05-28T01:40:47;2.03;;;1.65;;
69256;SDS011;56376;53.356;-1.748;2023-05-28T01:43:13;2.03;;;1.65;;
69256;SDS011;56376;53.356;-1.748;2023-05-28T01:45:39;1.83;;;1.67;;
69256;SDS011;56376;53.356;-1.748;2023-05-28T01:48:05;2.70;;;1.83;;
69256;SDS011;56376;53.356;-1.748;2023-05-28T01:50:32;1.88;;;1.65;;
69256;SDS011;56376;53.356;-1.748;2023-05-28T01:52:58;2.90;;;1.80;;
69256;SDS011;56376;53.356;-1.748;2023-05-28T01:55:24;2.15;;;1.95;;
69256;SDS011;56376;53.356;-1.748;2023-05-28T01:57:49;1.92;;;1.65;;
69256;SDS011;56376;53.356;-1.748;2023-05-28T02:00:15;2.00;;;1.80;;
69256;SDS011;56376;53.356;-1.748;2023-05-28T02:02:41;1.85;;;1.70;;
69256;SDS011;56376;53.356;-1.748;2023-05-28T02:05:07;1.75;;;1.65;;
69256;SDS011;56376;53.356;-1.748;2023-05-28T02:07:33;2.03;;;1.85;;
69256;SDS011;56376;53.356;-1.748;2023-05-28T02:09:58;2.20;;;1.80;;
69256;SDS011;56376;53.356;-1.748;2023-05-28T02:12:24;2.10;;;1.88;;
69256;SDS011;56376;53.356;-1.748;2023-05-28T02:14:49;2.08;;;1.88;;
69256;SDS011;56376;53.356;-1.748;2023-05-28T02:17:15;2.10;;;1.90;;
69256;SDS011;56376;53.356;-1.748;2023-05-28T02:19:42;1.90;;;1.70;;
69256;SDS011;56376;53.356;-1.748;2023-05-28T02:22:08;3.05;;;2.15;;
69256;SDS011;56376;53.356;-1.748;2023-05-28T02:24:37;1.90;;;1.70;;
69256;SDS011;56376;53.356;-1.748;2023-05-28T02:27:05;1.83;;;1.65;;
69256;SDS011;56376;53.356;-1.748;2023-05-28T02:29:32;2.60;;;1.98;;
69256;SDS011;56376;53.356;-1.748;2023-05-28T02:31:59;3.25;;;1.80;;
69256;SDS011;56376;53.356;-1.748;2023-05-28T02:34:25;1.70;;;1.60;;
69256;SDS011;56376;53.356;-1.748;2023-05-28T02:36:50;2.13;;;1.92;;
69256;SDS011;56376;53.356;-1.748;2023-05-28T02:39:17;2.17;;;1.77;;
69256;SDS011;56376;53.356;-1.748;2023-05-28T02:41:43;2.00;;;1.80;;
69256;SDS011;56376;53.356;-1.748;2023-05-28T02:44:08;2.58;;;1.73;;
69256;SDS011;56376;53.356;-1.748;2023-05-28T02:46:34;2.75;;;1.83;;
69256;SDS011;56376;53.356;-1.748;2023-05-28T02:48:59;2.65;;;2.45;;
69256;SDS011;56376;53.356;-1.748;2023-05-28T02:51:24;2.13;;;1.90;;
69256;SDS011;56376;53.356;-1.748;2023-05-28T02:53:50;2.72;;;1.73;;
69256;SDS011;56376;53.356;-1.748;2023-05-28T02:56:15;2.05;;;1.75;;
69256;SDS011;56376;53.356;-1.748;2023-05-28T02:58:41;2.95;;;1.90;;
69256;SDS011;56376;53.356;-1.748;2023-05-28T03:01:08;2.03;;;1.80;;
69256;SDS011;56376;53.356;-1.748;2023-05-28T03:03:33;2.38;;;1.98;;
69256;SDS011;56376;53.356;-1.748;2023-05-28T03:05:58;2.60;;;2.40;;
69256;SDS011;56376;53.356;-1.748;2023-05-28T03:08:24;2.35;;;2.15;;
69256;SDS011;56376;53.356;-1.748;2023-05-28T03:10:49;2.30;;;2.10;;
69256;SDS011;56376;53.356;-1.748;2023-05-28T03:13:15;2.33;;;2.10;;
69256;SDS011;56376;53.356;-1.748;2023-05-28T03:15:40;2.33;;;2.13;;
69256;SDS011;56376;53.356;-1.748;2023-05-28T03:18:05;2.30;;;2.10;;
69256;SDS011;56376;53.356;-1.748;2023-05-28T03:20:31;2.20;;;2.00;;
69256;SDS011;56376;53.356;-1.748;2023-05-28T03:22:56;3.25;;;2.63;;
69256;SDS011;56376;53.356;-1.748;2023-05-28T03:25:23;2.10;;;1.90;;
69256;SDS011;56376;53.356;-1.748;2023-05-28T03:27:49;2.35;;;1.92;;
69256;SDS011;56376;53.356;-1.748;2023-05-28T03:30:15;1.70;;;1.60;;
69256;SDS011;56376;53.356;-1.748;2023-05-28T03:32:40;2.13;;;1.90;;
69256;SDS011;56376;53.356;-1.748;2023-05-28T03:35:06;2.13;;;1.92;;
69256;SDS011;56376;53.356;-1.748;2023-05-28T03:37:32;2.47;;;2.00;;
69256;SDS011;56376;53.356;-1.748;2023-05-28T03:39:58;2.63;;;1.75;;
69256;SDS011;56376;53.356;-1.748;2023-05-28T03:42:23;2.00;;;1.75;;
69256;SDS011;56376;53.356;-1.748;2023-05-28T03:44:49;2.10;;;1.90;;
69256;SDS011;56376;53.356;-1.748;2023-05-28T03:47:14;3.03;;;1.90;;
69256;SDS011;56376;53.356;-1.748;2023-05-28T03:49:40;1.95;;;1.73;;
69256;SDS011;56376;53.356;-1.748;2023-05-28T03:52:05;2.63;;;1.98;;
69256;SDS011;56376;53.356;-1.748;2023-05-28T03:54:32;2.40;;;2.20;;
69256;SDS011;56376;53.356;-1.748;2023-05-28T03:56:58;2.55;;;2.10;;
69256;SDS011;56376;53.356;-1.748;2023-05-28T03:59:23;2.03;;;1.83;;
69256;SDS011;56376;53.356;-1.748;2023-05-28T04:01:49;2.00;;;1.80;;
69256;SDS011;56376;53.356;-1.748;2023-05-28T04:04:14;2.20;;;1.73;;
69256;SDS011;56376;53.356;-1.748;2023-05-28T04:06:40;2.30;;;2.10;;
69256;SDS011;56376;53.356;-1.748;2023-05-28T04:09:06;3.30;;;1.70;;
69256;SDS011;56376;53.356;-1.748;2023-05-28T04:11:32;2.25;;;1.85;;
69256;SDS011;56376;53.356;-1.748;2023-05-28T04:14:01;2.55;;;1.80;;
69256;SDS011;56376;53.356;-1.748;2023-05-28T04:16:26;2.53;;;2.25;;
69256;SDS011;56376;53.356;-1.748;2023-05-28T04:18:52;2.35;;;1.90;;
69256;SDS011;56376;53.356;-1.748;2023-05-28T04:21:18;2.00;;;1.80;;
69256;SDS011;56376;53.356;-1.748;2023-05-28T04:23:45;2.13;;;1.83;;
69256;SDS011;56376;53.356;-1.748;2023-05-28T04:26:11;2.00;;;1.80;;
69256;SDS011;56376;53.356;-1.748;2023-05-28T04:28:37;2.60;;;1.80;;
69256;SDS011;56376;53.356;-1.748;2023-05-28T04:31:03;1.77;;;1.58;;
69256;SDS011;56376;53.356;-1.748;2023-05-28T04:33:29;2.17;;;1.98;;
69256;SDS011;56376;53.356;-1.748;2023-05-28T04:35:55;2.40;;;2.00;;
69256;SDS011;56376;53.356;-1.748;2023-05-28T04:38:22;3.22;;;1.83;;
69256;SDS011;56376;53.356;-1.748;2023-05-28T04:40:47;2.83;;;2.17;;
69256;SDS011;56376;53.356;-1.748;2023-05-28T04:43:14;2.38;;;2.00;;
69256;SDS011;56376;53.356;-1.748;2023-05-28T04:45:40;2.33;;;1.80;;
69256;SDS011;56376;53.356;-1.748;2023-05-28T04:48:06;3.05;;;2.10;;
69256;SDS011;56376;53.356;-1.748;2023-05-28T04:50:32;2.10;;;1.90;;
69256;SDS011;56376;53.356;-1.748;2023-05-28T04:52:58;2.25;;;2.05;;
69256;SDS011;56376;53.356;-1.748;2023-05-28T04:55:23;2.13;;;1.90;;
69256;SDS011;56376;53.356;-1.748;2023-05-28T04:57:49;1.70;;;1.40;;
69256;SDS011;56376;53.356;-1.748;2023-05-28T05:00:14;2.10;;;1.90;;
69256;SDS011;56376;53.356;-1.748;2023-05-28T05:02:40;1.90;;;1.70;;
69256;SDS011;56376;53.356;-1.748;2023-05-28T05:05:06;1.88;;;1.67;;
69256;SDS011;56376;53.356;-1.748;2023-05-28T05:07:34;2.20;;;1.92;;
69256;SDS011;56376;53.356;-1.748;2023-05-28T05:10:06;1.80;;;1.48;;
69256;SDS011;56376;53.356;-1.748;2023-05-28T05:12:33;2.35;;;1.63;;
69256;SDS011;56376;53.356;-1.748;2023-05-28T05:14:58;1.50;;;1.40;;
69256;SDS011;56376;53.356;-1.748;2023-05-28T05:17:24;2.00;;;1.50;;
69256;SDS011;56376;53.356;-1.748;2023-05-28T05:19:49;1.88;;;1.60;;
69256;SDS011;56376;53.356;-1.748;2023-05-28T05:22:15;2.00;;;1.80;;
69256;SDS011;56376;53.356;-1.748;2023-05-28T05:24:40;2.35;;;2.13;;
69256;SDS011;56376;53.356;-1.748;2023-05-28T05:27:05;2.33;;;1.88;;
69256;SDS011;56376;53.356;-1.748;2023-05-28T05:29:31;2.10;;;1.65;;
69256;SDS011;56376;53.356;-1.748;2023-05-28T05:31:57;2.58;;;1.95;;
69256;SDS011;56376;53.356;-1.748;2023-05-28T05:34:22;2.38;;;1.90;;
69256;SDS011;56376;53.356;-1.748;2023-05-28T05:36:48;2.15;;;1.95;;
69256;SDS011;56376;53.356;-1.748;2023-05-28T05:39:13;2.30;;;1.60;;
69256;SDS011;56376;53.356;-1.748;2023-05-28T05:41:40;2.20;;;1.80;;
69256;SDS011;56376;53.356;-1.748;2023-05-28T05:44:05;2.13;;;1.90;;
69256;SDS011;56376;53.356;-1.748;2023-05-28T05:46:31;2.67;;;2.05;;
69256;SDS011;56376;53.356;-1.748;2023-05-28T05:48:56;2.13;;;1.80;;
69256;SDS011;56376;53.356;-1.748;2023-05-28T05:51:22;2.30;;;2.10;;
69256;SDS011;56376;53.356;-1.748;2023-05-28T05:53:47;1.73;;;1.60;;
69256;SDS011;56376;53.356;-1.748;2023-05-28T05:56:13;2.28;;;2.08;;
69256;SDS011;56376;53.356;-1.748;2023-05-28T05:58:38;2.00;;;1.70;;
69256;SDS011;56376;53.356;-1.748;2023-05-28T06:01:04;2.00;;;1.77;;
69256;SDS011;56376;53.356;-1.748;2023-05-28T06:03:30;3.13;;;1.92;;
69256;SDS011;56376;53.356;-1.748;2023-05-28T06:05:55;1.90;;;1.80;;
69256;SDS011;56376;53.356;-1.748;2023-05-28T06:08:21;1.90;;;1.67;;
69256;SDS011;56376;53.356;-1.748;2023-05-28T06:10:46;2.58;;;2.08;;
69256;SDS011;56376;53.356;-1.748;2023-05-28T06:13:13;2.80;;;2.47;;
69256;SDS011;56376;53.356;-1.748;2023-05-28T06:15:39;2.08;;;1.60;;
69256;SDS011;56376;53.356;-1.748;2023-05-28T06:18:04;2.20;;;2.00;;
69256;SDS011;56376;53.356;-1.748;2023-05-28T06:20:30;2.22;;;2.00;;
69256;SDS011;56376;53.356;-1.748;2023-05-28T06:22:56;2.30;;;1.73;;
69256;SDS011;56376;53.356;-1.748;2023-05-28T06:25:21;3.15;;;2.35;;
69256;SDS011;56376;53.356;-1.748;2023-05-28T06:27:47;3.20;;;2.28;;
69256;SDS011;56376;53.356;-1.748;2023-05-28T06:30:14;3.83;;;1.95;;
69256;SDS011;56376;53.356;-1.748;2023-05-28T06:32:40;2.30;;;2.10;;
69256;SDS011;56376;53.356;-1.748;2023-05-28T06:35:06;2.00;;;1.75;;
69256;SDS011;56376;53.356;-1.748;2023-05-28T06:37:33;3.17;;;2.10;;
69256;SDS011;56376;53.356;-1.748;2023-05-28T06:39:58;1.90;;;1.70;;
69256;SDS011;56376;53.356;-1.748;2023-05-28T06:42:23;2.30;;;2.08;;
69256;SDS011;56376;53.356;-1.748;2023-05-28T06:44:49;2.35;;;1.95;;
69256;SDS011;56376;53.356;-1.748;2023-05-28T06:47:14;2.10;;;1.90;;
69256;SDS011;56376;53.356;-1.748;2023-05-28T06:49:40;2.45;;;2.10;;
69256;SDS011;56376;53.356;-1.748;2023-05-28T06:52:06;2.42;;;2.10;;
69256;SDS011;56376;53.356;-1.748;2023-05-28T06:54:31;1.80;;;1.70;;
69256;SDS011;56376;53.356;-1.748;2023-05-28T06:56:56;2.75;;;2.00;;
69256;SDS011;56376;53.356;-1.748;2023-05-28T06:59:22;3.10;;;2.35;;
69256;SDS011;56376;53.356;-1.748;2023-05-28T07:01:47;2.10;;;1.90;;
69256;SDS011;56376;53.356;-1.748;2023-05-28T07:04:12;1.92;;;1.70;;
69256;SDS011;56376;53.356;-1.748;2023-05-28T07:06:38;2.83;;;1.90;;
69256;SDS011;56376;53.356;-1.748;2023-05-28T07:09:03;2.50;;;2.05;;
69256;SDS011;56376;53.356;-1.748;2023-05-28T07:11:30;1.95;;;1.73;;
69256;SDS011;56376;53.356;-1.748;2023-05-28T07:13:55;4.85;;;2.20;;
69256;SDS011;56376;53.356;-1.748;2023-05-28T07:16:21;3.90;;;2.00;;
69256;SDS011;56376;53.356;-1.748;2023-05-28T07:18:46;2.10;;;1.90;;
69256;SDS011;56376;53.356;-1.748;2023-05-28T07:21:12;3.08;;;1.85;;
69256;SDS011;56376;53.356;-1.748;2023-05-28T07:23:38;1.98;;;1.77;;
69256;SDS011;56376;53.356;-1.748;2023-05-28T07:26:03;1.92;;;1.70;;
69256;SDS011;56376;53.356;-1.748;2023-05-28T07:28:29;2.28;;;1.80;;
69256;SDS011;56376;53.356;-1.748;2023-05-28T07:30:55;3.75;;;2.03;;
69256;SDS011;56376;53.356;-1.748;2023-05-28T07:33:21;2.45;;;1.90;;
69256;SDS011;56376;53.356;-1.748;2023-05-28T07:35:46;2.83;;;1.90;;
69256;SDS011;56376;53.356;-1.748;2023-05-28T07:38:12;2.70;;;1.90;;
69256;SDS011;56376;53.356;-1.748;2023-05-28T07:40:39;2.22;;;1.60;;
69256;SDS011;56376;53.356;-1.748;2023-05-28T07:43:05;1.70;;;1.60;;
69256;SDS011;56376;53.356;-1.748;2023-05-28T07:45:30;1.95;;;1.70;;
69256;SDS011;56376;53.356;-1.748;2023-05-28T07:47:56;2.13;;;1.85;;
69256;SDS011;56376;53.356;-1.748;2023-05-28T07:50:21;2.50;;;1.90;;
69256;SDS011;56376;53.356;-1.748;2023-05-28T07:52:47;2.65;;;1.75;;
69256;SDS011;56376;53.356;-1.748;2023-05-28T07:55:12;2.20;;;2.00;;
69256;SDS011;56376;53.356;-1.748;2023-05-28T07:57:37;2.70;;;1.95;;
69256;SDS011;56376;53.356;-1.748;2023-05-28T08:00:03;3.05;;;2.30;;
69256;SDS011;56376;53.356;-1.748;2023-05-28T08:02:35;2.60;;;2.08;;
69256;SDS011;56376;53.356;-1.748;2023-05-28T08:05:00;2.63;;;1.85;;
69256;SDS011;56376;53.356;-1.748;2023-05-28T08:07:26;4.38;;;2.35;;
69256;SDS011;56376;53.356;-1.748;2023-05-28T08:09:53;2.42;;;1.80;;
69256;SDS011;56376;53.356;-1.748;2023-05-28T08:12:18;2.95;;;2.20;;
69256;SDS011;56376;53.356;-1.748;2023-05-28T08:14:44;2.65;;;1.90;;
69256;SDS011;56376;53.356;-1.748;2023-05-28T08:17:09;3.28;;;2.30;;
69256;SDS011;56376;53.356;-1.748;2023-05-28T08:19:35;3.20;;;2.40;;
69256;SDS011;56376;53.356;-1.748;2023-05-28T08:22:00;3.70;;;2.25;;
69256;SDS011;56376;53.356;-1.748;2023-05-28T08:24:26;2.60;;;1.95;;
69256;SDS011;56376;53.356;-1.748;2023-05-28T08:26:51;2.72;;;2.13;;
69256;SDS011;56376;53.356;-1.748;2023-05-28T08:29:17;3.17;;;2.60;;
69256;SDS011;56376;53.356;-1.748;2023-05-28T08:31:42;2.95;;;2.30;;
69256;SDS011;56376;53.356;-1.748;2023-05-28T08:34:08;1.80;;;1.70;;
69256;SDS011;56376;53.356;-1.748;2023-05-28T08:36:33;3.15;;;1.98;;
69256;SDS011;56376;53.356;-1.748;2023-05-28T08:39:00;4.18;;;2.58;;
69256;SDS011;56376;53.356;-1.748;2023-05-28T08:41:25;2.53;;;2.22;;
69256;SDS011;56376;53.356;-1.748;2023-05-28T08:43:51;3.30;;;2.53;;
69256;SDS011;56376;53.356;-1.748;2023-05-28T08:46:17;3.55;;;2.40;;
69256;SDS011;56376;53.356;-1.748;2023-05-28T08:48:43;3.63;;;2.33;;
69256;SDS011;56376;53.356;-1.748;2023-05-28T08:51:09;3.53;;;2.05;;
69256;SDS011;56376;53.356;-1.748;2023-05-28T08:53:37;5.00;;;2.90;;
69256;SDS011;56376;53.356;-1.748;2023-05-28T08:56:05;2.88;;;2.20;;
69256;SDS011;56376;53.356;-1.748;2023-05-28T08:58:33;3.60;;;2.50;;
69256;SDS011;56376;53.356;-1.748;2023-05-28T09:01:01;3.75;;;2.58;;
69256;SDS011;56376;53.356;-1.748;2023-05-28T09:03:28;2.65;;;2.30;;
69256;SDS011;56376;53.356;-1.748;2023-05-28T09:05:54;3.55;;;2.22;;
69256;SDS011;56376;53.356;-1.748;2023-05-28T09:08:19;3.67;;;3.00;;
69256;SDS011;56376;53.356;-1.748;2023-05-28T09:10:45;4.70;;;2.72;;
69256;SDS011;56376;53.356;-1.748;2023-05-28T09:13:10;4.07;;;2.92;;
69256;SDS011;56376;53.356;-1.748;2023-05-28T09:15:35;5.50;;;3.05;;
69256;SDS011;56376;53.356;-1.748;2023-05-28T09:18:01;3.47;;;2.60;;
69256;SDS011;56376;53.356;-1.748;2023-05-28T09:20:28;4.57;;;3.08;;
69256;SDS011;56376;53.356;-1.748;2023-05-28T09:23:00;4.47;;;3.20;;
69256;SDS011;56376;53.356;-1.748;2023-05-28T09:25:33;4.10;;;3.17;;
69256;SDS011;56376;53.356;-1.748;2023-05-28T09:28:01;3.95;;;2.83;;
69256;SDS011;56376;53.356;-1.748;2023-05-28T09:30:27;2.53;;;2.33;;
69256;SDS011;56376;53.356;-1.748;2023-05-28T09:33:00;4.18;;;3.10;;
69256;SDS011;56376;53.356;-1.748;2023-05-28T09:35:28;4.63;;;2.70;;
69256;SDS011;56376;53.356;-1.748;2023-05-28T09:38:00;8.65;;;3.63;;
69256;SDS011;56376;53.356;-1.748;2023-05-28T09:40:27;4.40;;;3.05;;
69256;SDS011;56376;53.356;-1.748;2023-05-28T09:42:52;4.22;;;3.30;;
69256;SDS011;56376;53.356;-1.748;2023-05-28T09:45:25;7.93;;;4.03;;
69256;SDS011;56376;53.356;-1.748;2023-05-28T09:47:52;6.05;;;3.95;;
69256;SDS011;56376;53.356;-1.748;2023-05-28T09:50:18;4.70;;;2.83;;
69256;SDS011;56376;53.356;-1.748;2023-05-28T09:52:43;3.70;;;2.78;;
69256;SDS011;56376;53.356;-1.748;2023-05-28T09:55:12;3.22;;;2.58;;
69256;SDS011;56376;53.356;-1.748;2023-05-28T09:57:44;4.60;;;2.80;;
69256;SDS011;56376;53.356;-1.748;2023-05-28T10:00:11;4.57;;;2.80;;
69256;SDS011;56376;53.356;-1.748;2023-05-28T10:05:37;3.72;;;2.60;;
69256;SDS011;56376;53.356;-1.748;2023-05-28T10:08:06;5.47;;;3.03;;
69256;SDS011;56376;53.356;-1.748;2023-05-28T10:10:35;5.00;;;2.67;;
69256;SDS011;56376;53.356;-1.748;2023-05-28T10:13:04;4.68;;;3.17;;
69256;SDS011;56376;53.356;-1.748;2023-05-28T10:15:32;4.75;;;2.70;;
69256;SDS011;56376;53.356;-1.748;2023-05-28T10:17:59;3.78;;;2.90;;
69256;SDS011;56376;53.356;-1.748;2023-05-28T10:20:25;4.38;;;2.67;;
69256;SDS011;56376;53.356;-1.748;2023-05-28T10:22:51;4.68;;;3.00;;
69256;SDS011;56376;53.356;-1.748;2023-05-28T10:25:16;2.72;;;2.47;;
69256;SDS011;56376;53.356;-1.748;2023-05-28T10:27:45;5.53;;;2.70;;
69256;SDS011;56376;53.356;-1.748;2023-05-28T10:30:26;4.95;;;2.78;;
69256;SDS011;56376;53.356;-1.748;2023-05-28T10:33:05;4.47;;;2.90;;
69256;SDS011;56376;53.356;-1.748;2023-05-28T10:35:35;6.03;;;2.90;;
69256;SDS011;56376;53.356;-1.748;2023-05-28T10:38:14;3.80;;;2.58;;
69256;SDS011;56376;53.356;-1.748;2023-05-28T10:40:40;4.85;;;2.95;;
69256;SDS011;56376;53.356;-1.748;2023-05-28T10:43:12;4.03;;;2.88;;
69256;SDS011;56376;53.356;-1.748;2023-05-28T10:46:12;4.72;;;2.85;;
69256;SDS011;56376;53.356;-1.748;2023-05-28T10:48:40;6.63;;;3.55;;
69256;SDS011;56376;53.356;-1.748;2023-05-28T10:51:07;4.60;;;3.40;;
69256;SDS011;56376;53.356;-1.748;2023-05-28T10:53:32;4.28;;;3.42;;
69256;SDS011;56376;53.356;-1.748;2023-05-28T10:55:58;5.85;;;3.22;;
69256;SDS011;56376;53.356;-1.748;2023-05-28T10:58:27;5.85;;;3.40;;
69256;SDS011;56376;53.356;-1.748;2023-05-28T11:01:00;5.88;;;3.20;;
69256;SDS011;56376;53.356;-1.748;2023-05-28T11:08:52;4.45;;;2.92;;
69256;SDS011;56376;53.356;-1.748;2023-05-28T11:11:17;4.00;;;2.40;;
69256;SDS011;56376;53.356;-1.748;2023-05-28T11:13:47;3.95;;;2.50;;
69256;SDS011;56376;53.356;-1.748;2023-05-28T11:16:17;4.93;;;3.30;;
69256;SDS011;56376;53.356;-1.748;2023-05-28T11:18:59;5.40;;;3.15;;
69256;SDS011;56376;53.356;-1.748;2023-05-28T11:21:33;3.13;;;2.47;;
69256;SDS011;56376;53.356;-1.748;2023-05-28T11:24:02;3.55;;;3.00;;
69256;SDS011;56376;53.356;-1.748;2023-05-28T11:26:28;4.18;;;2.92;;
69256;SDS011;56376;53.356;-1.748;2023-05-28T11:28:56;6.50;;;3.38;;
69256;SDS011;56376;53.356;-1.748;2023-05-28T11:31:21;8.63;;;4.00;;
69256;SDS011;56376;53.356;-1.748;2023-05-28T11:33:49;6.68;;;3.58;;
69256;SDS011;56376;53.356;-1.748;2023-05-28T11:36:15;4.47;;;3.20;;
69256;SDS011;56376;53.356;-1.748;2023-05-28T11:38:40;5.50;;;3.53;;
69256;SDS011;56376;53.356;-1.748;2023-05-28T11:41:06;5.95;;;3.10;;
69256;SDS011;56376;53.356;-1.748;2023-05-28T11:43:31;4.78;;;3.10;;
69256;SDS011;56376;53.356;-1.748;2023-05-28T11:45:57;5.68;;;3.30;;
69256;SDS011;56376;53.356;-1.748;2023-05-28T11:48:24;8.13;;;4.00;;
69256;SDS011;56376;53.356;-1.748;2023-05-28T11:51:01;8.52;;;3.80;;
69256;SDS011;56376;53.356;-1.748;2023-05-28T11:56:09;4.60;;;3.20;;
69256;SDS011;56376;53.356;-1.748;2023-05-28T11:58:35;5.47;;;2.97;;
69256;SDS011;56376;53.356;-1.748;2023-05-28T12:01:06;6.43;;;3.60;;
69256;SDS011;56376;53.356;-1.748;2023-05-28T12:03:33;3.55;;;2.72;;
69256;SDS011;56376;53.356;-1.748;2023-05-28T12:05:59;5.15;;;3.28;;
69256;SDS011;56376;53.356;-1.748;2023-05-28T12:08:26;7.15;;;3.92;;
69256;SDS011;56376;53.356;-1.748;2023-05-28T12:10:52;5.70;;;3.50;;
69256;SDS011;56376;53.356;-1.748;2023-05-28T12:13:17;6.30;;;3.97;;
69256;SDS011;56376;53.356;-1.748;2023-05-28T12:15:43;5.28;;;3.20;;
69256;SDS011;56376;53.356;-1.748;2023-05-28T12:18:08;10.60;;;4.13;;
69256;SDS011;56376;53.356;-1.748;2023-05-28T12:20:36;6.00;;;4.40;;
69256;SDS011;56376;53.356;-1.748;2023-05-28T12:23:05;7.20;;;3.92;;
69256;SDS011;56376;53.356;-1.748;2023-05-28T12:28:07;5.35;;;3.70;;
69256;SDS011;56376;53.356;-1.748;2023-05-28T12:30:33;6.85;;;4.35;;
69256;SDS011;56376;53.356;-1.748;2023-05-28T12:32:59;5.53;;;4.30;;
69256;SDS011;56376;53.356;-1.748;2023-05-28T12:35:24;7.40;;;4.35;;
69256;SDS011;56376;53.356;-1.748;2023-05-28T12:37:50;8.38;;;5.30;;
69256;SDS011;56376;53.356;-1.748;2023-05-28T12:40:15;8.95;;;4.72;;
69256;SDS011;56376;53.356;-1.748;2023-05-28T12:42:41;8.60;;;4.35;;
69256;SDS011;56376;53.356;-1.748;2023-05-28T12:45:07;7.95;;;4.28;;
69256;SDS011;56376;53.356;-1.748;2023-05-28T12:47:33;5.80;;;3.88;;
69256;SDS011;56376;53.356;-1.748;2023-05-28T12:49:58;6.00;;;4.28;;
69256;SDS011;56376;53.356;-1.748;2023-05-28T12:52:23;8.50;;;4.45;;
69256;SDS011;56376;53.356;-1.748;2023-05-28T12:54:49;5.05;;;4.07;;
69256;SDS011;56376;53.356;-1.748;2023-05-28T12:57:14;6.97;;;4.60;;
69256;SDS011;56376;53.356;-1.748;2023-05-28T12:59:40;7.38;;;4.43;;
69256;SDS011;56376;53.356;-1.748;2023-05-28T13:02:05;6.53;;;4.05;;
69256;SDS011;56376;53.356;-1.748;2023-05-28T13:04:31;8.55;;;4.07;;
69256;SDS011;56376;53.356;-1.748;2023-05-28T13:06:56;6.88;;;3.90;;
69256;SDS011;56376;53.356;-1.748;2023-05-28T13:09:21;6.40;;;4.03;;
69256;SDS011;56376;53.356;-1.748;2023-05-28T13:11:47;5.13;;;3.30;;
69256;SDS011;56376;53.356;-1.748;2023-05-28T13:14:12;5.28;;;3.92;;
69256;SDS011;56376;53.356;-1.748;2023-05-28T13:16:38;5.90;;;3.10;;
69256;SDS011;56376;53.356;-1.748;2023-05-28T13:19:03;5.25;;;3.92;;
69256;SDS011;56376;53.356;-1.748;2023-05-28T13:21:29;6.45;;;3.92;;
69256;SDS011;56376;53.356;-1.748;2023-05-28T13:23:57;6.00;;;3.65;;
69256;SDS011;56376;53.356;-1.748;2023-05-28T13:26:23;5.30;;;3.58;;
69256;SDS011;56376;53.356;-1.748;2023-05-28T13:28:49;4.45;;;3.03;;
69256;SDS011;56376;53.356;-1.748;2023-05-28T13:31:14;4.88;;;3.45;;
69256;SDS011;56376;53.356;-1.748;2023-05-28T13:33:39;5.28;;;3.55;;
69256;SDS011;56376;53.356;-1.748;2023-05-28T13:36:05;6.78;;;3.97;;
69256;SDS011;56376;53.356;-1.748;2023-05-28T13:38:31;8.07;;;3.60;;
69256;SDS011;56376;53.356;-1.748;2023-05-28T13:40:58;7.75;;;3.53;;
69256;SDS011;56376;53.356;-1.748;2023-05-28T13:43:24;5.60;;;3.50;;
69256;SDS011;56376;53.356;-1.748;2023-05-28T13:45:50;9.05;;;3.70;;
69256;SDS011;56376;53.356;-1.748;2023-05-28T13:48:15;8.38;;;4.18;;
69256;SDS011;56376;53.356;-1.748;2023-05-28T13:50:41;4.30;;;3.10;;
69256;SDS011;56376;53.356;-1.748;2023-05-28T13:53:06;9.27;;;3.67;;
69256;SDS011;56376;53.356;-1.748;2023-05-28T13:55:32;5.55;;;3.03;;
69256;SDS011;56376;53.356;-1.748;2023-05-28T13:57:57;7.97;;;3.35;;
69256;SDS011;56376;53.356;-1.748;2023-05-28T14:00:22;7.00;;;3.40;;
69256;SDS011;56376;53.356;-1.748;2023-05-28T14:02:48;7.90;;;4.38;;
69256;SDS011;56376;53.356;-1.748;2023-05-28T14:05:16;10.25;;;3.75;;
69256;SDS011;56376;53.356;-1.748;2023-05-28T14:07:41;6.10;;;3.53;;
69256;SDS011;56376;53.356;-1.748;2023-05-28T14:10:07;9.05;;;3.15;;
69256;SDS011;56376;53.356;-1.748;2023-05-28T14:12:32;6.60;;;3.45;;
69256;SDS011;56376;53.356;-1.748;2023-05-28T14:14:58;6.95;;;3.60;;
69256;SDS011;56376;53.356;-1.748;2023-05-28T14:17:23;6.63;;;3.85;;
69256;SDS011;56376;53.356;-1.748;2023-05-28T14:19:48;7.68;;;3.50;;
69256;SDS011;56376;53.356;-1.748;2023-05-28T14:22:14;7.63;;;3.83;;
69256;SDS011;56376;53.356;-1.748;2023-05-28T14:24:40;7.05;;;3.15;;
69256;SDS011;56376;53.356;-1.748;2023-05-28T14:27:05;5.80;;;3.58;;
69256;SDS011;56376;53.356;-1.748;2023-05-28T14:29:31;8.05;;;3.55;;
69256;SDS011;56376;53.356;-1.748;2023-05-28T14:31:57;11.48;;;4.47;;
69256;SDS011;56376;53.356;-1.748;2023-05-28T14:34:22;7.72;;;3.35;;
69256;SDS011;56376;53.356;-1.748;2023-05-28T14:36:47;7.25;;;3.20;;
69256;SDS011;56376;53.356;-1.748;2023-05-28T14:39:13;9.02;;;3.80;;
69256;SDS011;56376;53.356;-1.748;2023-05-28T14:41:38;8.85;;;3.72;;